Time;durP1;ratioP1;P1;durP2;ratioP2;P2;SDS_P1;SDS_P2;PMS_P1;PMS_P2;Temp;Humidity;BMP_temperature;BMP_pressure;BME280_temperature;BME280_humidity;BME280_pressure;Samples;Min_cycle;Max_cycle;Signal;HPM_P1;HPM_P2
2022/03/31 00:00:14;;;;;;;0.10;0.10;;;;;;;;;;6272884;22;20503;-76
2022/03/31 00:02:40;;;;;;;0.20;0.20;;;;;;;;;;6310046;22;20462;-75
2022/03/31 00:05:08;;;;;;;0.10;0.10;;;;;;;;;;6282831;22;20188;-77
2022/03/31 00:07:34;;;;;;;0.20;0.20;;;;;;;;;;6310635;22;20251;-75
2022/03/31 00:10:01;;;;;;;0.20;0.20;;;;;;;;;;6286495;22;20420;-74
2022/03/31 00:12:27;;;;;;;0.20;0.20;;;;;;;;;;6294883;22;20213;-78
2022/03/31 00:14:53;;;;;;;0.20;0.20;;;;;;;;;;6286441;22;20178;-79
2022/03/31 00:17:20;;;;;;;0.20;0.20;;;;;;;;;;6295549;22;20235;-75
2022/03/31 00:19:46;;;;;;;0.20;0.20;;;;;;;;;;6286430;22;20223;-75
2022/03/31 00:22:14;;;;;;;0.20;0.20;;;;;;;;;;6295487;22;20213;-75
2022/03/31 00:24:40;;;;;;;0.20;0.20;;;;;;;;;;6286227;22;20183;-76
2022/03/31 00:27:08;;;;;;;0.20;0.20;;;;;;;;;;6295792;22;20210;-78
2022/03/31 00:29:34;;;;;;;0.20;0.20;;;;;;;;;;6286394;22;20228;-76
2022/03/31 00:32:01;;;;;;;0.20;0.20;;;;;;;;;;6268191;22;20213;-76
2022/03/31 00:34:30;;;;;;;0.20;0.20;;;;;;;;;;6287306;22;20484;-76
2022/03/31 00:36:57;;;;;;;0.20;0.20;;;;;;;;;;6293514;22;20209;-76
2022/03/31 00:39:32;;;;;;;0.20;0.20;;;;;;;;;;6288319;22;20180;-77
2022/03/31 00:41:59;;;;;;;0.20;0.20;;;;;;;;;;6293503;22;20231;-77
2022/03/31 00:44:25;;;;;;;0.20;0.20;;;;;;;;;;6287803;22;20223;-75
2022/03/31 00:46:54;;;;;;;0.20;0.20;;;;;;;;;;6292586;22;20213;-76
2022/03/31 00:49:22;;;;;;;0.20;0.20;;;;;;;;;;6287933;22;20197;-75
2022/03/31 00:51:49;;;;;;;0.20;0.20;;;;;;;;;;6291858;22;20240;-75
2022/03/31 00:54:16;;;;;;;0.20;0.20;;;;;;;;;;6289535;22;20185;-75
2022/03/31 00:56:45;;;;;;;0.20;0.20;;;;;;;;;;6291051;22;20266;-76
2022/03/31 00:59:12;;;;;;;0.20;0.20;;;;;;;;;;6290820;22;20179;-77
2022/03/31 01:01:39;;;;;;;0.20;0.20;;;;;;;;;;6289453;22;20288;-75
2022/03/31 01:04:07;;;;;;;0.20;0.20;;;;;;;;;;6291233;22;20180;-75
2022/03/31 01:06:34;;;;;;;0.20;0.20;;;;;;;;;;6289069;22;20211;-76
2022/03/31 01:09:02;;;;;;;0.20;0.20;;;;;;;;;;6292445;22;20180;-75
2022/03/31 01:11:29;;;;;;;0.20;0.20;;;;;;;;;;6287709;22;20538;-75
2022/03/31 01:13:58;;;;;;;0.20;0.20;;;;;;;;;;6293048;22;20201;-76
2022/03/31 01:16:24;;;;;;;0.20;0.20;;;;;;;;;;6286065;22;20218;-76
2022/03/31 01:18:51;;;;;;;0.20;0.20;;;;;;;;;;6293868;22;20180;-75
2022/03/31 01:21:18;;;;;;;0.20;0.20;;;;;;;;;;6285195;22;20213;-77
2022/03/31 01:23:46;;;;;;;0.20;0.20;;;;;;;;;;6294916;22;20222;-74
2022/03/31 01:26:13;;;;;;;0.20;0.20;;;;;;;;;;6284607;22;20211;-77
2022/03/31 01:28:40;;;;;;;0.20;0.20;;;;;;;;;;6296715;22;20197;-77
2022/03/31 01:31:06;;;;;;;0.20;0.20;;;;;;;;;;6283166;22;20257;-76
2022/03/31 01:33:33;;;;;;;0.40;0.40;;;;;;;;;;6297711;22;20356;-77
2022/03/31 01:35:59;;;;;;;0.20;0.20;;;;;;;;;;6281802;22;20234;-75
2022/03/31 01:38:26;;;;;;;0.20;0.20;;;;;;;;;;6299111;22;20186;-77
2022/03/31 01:40:54;;;;;;;0.20;0.20;;;;;;;;;;6280187;22;20209;-75
2022/03/31 01:43:21;;;;;;;0.20;0.20;;;;;;;;;;6300571;22;20179;-77
2022/03/31 01:45:48;;;;;;;0.20;0.20;;;;;;;;;;6278936;22;20215;-76
2022/03/31 01:48:15;;;;;;;0.20;0.20;;;;;;;;;;6301548;22;20377;-77
2022/03/31 01:50:41;;;;;;;0.20;0.20;;;;;;;;;;6277149;22;20215;-76
2022/03/31 01:53:08;;;;;;;0.20;0.20;;;;;;;;;;6303617;22;20244;-75
2022/03/31 01:55:34;;;;;;;0.20;0.20;;;;;;;;;;6276472;22;20469;-76
2022/03/31 01:58:03;;;;;;;0.20;0.20;;;;;;;;;;6304602;22;20173;-77
2022/03/31 02:00:29;;;;;;;0.20;0.20;;;;;;;;;;6271649;22;20274;-76
2022/03/31 02:02:56;;;;;;;0.20;0.20;;;;;;;;;;6305008;22;20179;-74
2022/03/31 02:05:22;;;;;;;0.20;0.20;;;;;;;;;;6273919;22;20179;-77
2022/03/31 02:07:53;;;;;;;0.20;0.20;;;;;;;;;;6306582;22;20183;-75
2022/03/31 02:10:19;;;;;;;0.20;0.20;;;;;;;;;;6273375;22;20206;-76
2022/03/31 02:12:46;;;;;;;0.23;0.23;;;;;;;;;;6307310;22;20492;-76
2022/03/31 02:15:15;;;;;;;0.20;0.20;;;;;;;;;;6272017;22;20198;-78
2022/03/31 02:17:41;;;;;;;0.20;0.20;;;;;;;;;;6307919;22;20181;-76
2022/03/31 02:20:08;;;;;;;0.20;0.20;;;;;;;;;;6271082;22;20171;-77
2022/03/31 02:22:35;;;;;;;0.20;0.20;;;;;;;;;;6309604;22;20404;-77
2022/03/31 02:25:01;;;;;;;0.20;0.20;;;;;;;;;;6285921;22;20406;-76
2022/03/31 02:27:28;;;;;;;0.20;0.20;;;;;;;;;;6294888;22;20420;-75
2022/03/31 02:29:54;;;;;;;0.20;0.20;;;;;;;;;;6285775;22;20230;-77
2022/03/31 02:32:22;;;;;;;0.27;0.27;;;;;;;;;;6294849;22;20213;-75
2022/03/31 02:34:49;;;;;;;0.20;0.20;;;;;;;;;;6286112;22;20196;-76
2022/03/31 02:37:16;;;;;;;0.20;0.20;;;;;;;;;;6294550;22;20265;-76
2022/03/31 02:39:43;;;;;;;0.27;0.27;;;;;;;;;;6286006;22;20220;-76
2022/03/31 02:42:09;;;;;;;0.20;0.20;;;;;;;;;;6294411;22;20277;-76
2022/03/31 02:44:35;;;;;;;0.20;0.20;;;;;;;;;;6286100;22;20171;-76
2022/03/31 02:47:02;;;;;;;0.20;0.20;;;;;;;;;;6293618;22;20210;-76
2022/03/31 02:49:30;;;;;;;0.20;0.20;;;;;;;;;;6286536;22;20187;-74
2022/03/31 02:51:58;;;;;;;0.20;0.20;;;;;;;;;;6292556;22;20207;-78
2022/03/31 02:57:08;;;;;;;0.20;0.20;;;;;;;;;;6295038;22;20297;-76
2022/03/31 02:59:34;;;;;;;0.20;0.20;;;;;;;;;;6285366;22;20171;-77
2022/03/31 03:02:01;;;;;;;0.20;0.20;;;;;;;;;;6293535;22;20214;-75
2022/03/31 03:04:28;;;;;;;1.80;1.80;;;;;;;;;;6286151;22;20178;-77
2022/03/31 03:07:00;;;;;;;0.20;0.20;;;;;;;;;;6292100;22;20262;-76
2022/03/31 03:09:27;;;;;;;0.20;0.20;;;;;;;;;;6286509;22;20355;-78
2022/03/31 03:11:53;;;;;;;0.20;0.20;;;;;;;;;;6291386;22;20269;-75
2022/03/31 03:14:19;;;;;;;0.20;0.20;;;;;;;;;;6314050;22;20238;-76
2022/03/31 03:16:48;;;;;;;0.30;0.30;;;;;;;;;;6298671;22;20255;-77
2022/03/31 03:19:14;;;;;;;0.20;0.20;;;;;;;;;;6314229;22;20296;-75
2022/03/31 03:21:40;;;;;;;0.20;0.20;;;;;;;;;;6298881;22;20211;-76
2022/03/31 03:24:10;;;;;;;0.20;0.20;;;;;;;;;;6314177;22;20198;-76
2022/03/31 03:26:36;;;;;;;0.20;0.20;;;;;;;;;;6298485;22;20222;-76
2022/03/31 03:29:03;;;;;;;0.20;0.20;;;;;;;;;;6314271;22;20217;-75
2022/03/31 03:31:32;;;;;;;0.20;0.20;;;;;;;;;;6291529;22;20213;-76
2022/03/31 03:33:58;;;;;;;0.20;0.20;;;;;;;;;;6292768;22;20179;-76
2022/03/31 03:36:27;;;;;;;0.20;0.20;;;;;;;;;;6286321;22;20300;-75
2022/03/31 03:38:53;;;;;;;0.23;0.23;;;;;;;;;;6292910;22;20385;-75
2022/03/31 03:41:21;;;;;;;0.20;0.20;;;;;;;;;;6285204;22;20206;-76
2022/03/31 03:43:48;;;;;;;0.30;0.30;;;;;;;;;;6294180;22;20247;-75
2022/03/31 03:46:17;;;;;;;0.20;0.20;;;;;;;;;;6284115;22;20325;-74
2022/03/31 03:48:43;;;;;;;0.23;0.23;;;;;;;;;;6297042;22;20410;-76
2022/03/31 03:51:10;;;;;;;0.20;0.20;;;;;;;;;;6284886;22;20234;-76
2022/03/31 03:53:36;;;;;;;0.20;0.20;;;;;;;;;;6298075;22;20509;-75
2022/03/31 03:56:03;;;;;;;0.20;0.20;;;;;;;;;;6283277;22;20215;-77
2022/03/31 03:58:31;;;;;;;0.20;0.20;;;;;;;;;;6299421;22;20172;-76
2022/03/31 04:00:57;;;;;;;0.20;0.20;;;;;;;;;;6281093;22;20210;-77
2022/03/31 04:03:23;;;;;;;0.20;0.20;;;;;;;;;;6301010;22;20178;-76
2022/03/31 04:05:51;;;;;;;0.20;0.20;;;;;;;;;;6278303;22;20217;-76
2022/03/31 04:08:17;;;;;;;0.23;0.23;;;;;;;;;;6303778;22;20201;-75
2022/03/31 04:10:44;;;;;;;0.20;0.20;;;;;;;;;;6279448;22;20251;-74
2022/03/31 04:13:11;;;;;;;0.20;0.20;;;;;;;;;;6303699;22;20190;-76
2022/03/31 04:15:39;;;;;;;0.20;0.20;;;;;;;;;;6278173;22;20209;-76
2022/03/31 04:18:07;;;;;;;0.20;0.20;;;;;;;;;;6304191;22;20185;-77
2022/03/31 04:20:35;;;;;;;0.30;0.30;;;;;;;;;;6277462;22;20269;-76
2022/03/31 04:23:02;;;;;;;0.30;0.30;;;;;;;;;;6304733;22;20486;-76
2022/03/31 04:25:28;;;;;;;0.30;0.30;;;;;;;;;;6275879;22;20212;-77
2022/03/31 04:27:55;;;;;;;0.27;0.27;;;;;;;;;;6306968;22;20193;-76
2022/03/31 04:30:21;;;;;;;0.20;0.20;;;;;;;;;;6273258;22;20183;-75
2022/03/31 04:32:49;;;;;;;0.20;0.20;;;;;;;;;;6307915;22;20174;-76
2022/03/31 04:35:16;;;;;;;0.20;0.20;;;;;;;;;;6273378;22;20203;-75
2022/03/31 04:37:42;;;;;;;0.20;0.20;;;;;;;;;;6308662;22;20171;-76
2022/03/31 04:40:09;;;;;;;0.20;0.20;;;;;;;;;;6271960;22;20206;-76
2022/03/31 04:42:36;;;;;;;0.30;0.30;;;;;;;;;;6309710;22;20257;-76
2022/03/31 04:45:03;;;;;;;0.20;0.20;;;;;;;;;;6286522;22;20546;-77
2022/03/31 04:47:29;;;;;;;0.20;0.20;;;;;;;;;;6295563;22;20210;-76
2022/03/31 04:49:57;;;;;;;0.20;0.20;;;;;;;;;;6286667;22;20336;-77
2022/03/31 04:52:24;;;;;;;0.20;0.20;;;;;;;;;;6295597;22;20214;-77
2022/03/31 04:54:51;;;;;;;0.20;0.20;;;;;;;;;;6286485;22;20478;-78
2022/03/31 04:57:21;;;;;;;4.60;1.70;;;;;;;;;;6295645;22;20443;-76
2022/03/31 04:59:47;;;;;;;0.20;0.20;;;;;;;;;;6286279;22;20248;-77
2022/03/31 05:02:14;;;;;;;0.20;0.20;;;;;;;;;;6295597;22;20213;-76
2022/03/31 05:04:40;;;;;;;0.30;0.30;;;;;;;;;;6286176;22;20171;-77
2022/03/31 05:07:08;;;;;;;0.30;0.30;;;;;;;;;;6295761;22;20231;-78
2022/03/31 05:09:35;;;;;;;0.20;0.20;;;;;;;;;;6286675;22;20322;-76
2022/03/31 05:12:01;;;;;;;0.20;0.20;;;;;;;;;;6295271;22;20392;-76
2022/03/31 05:14:27;;;;;;;0.20;0.20;;;;;;;;;;6287309;22;20183;-75
2022/03/31 05:16:54;;;;;;;0.27;0.27;;;;;;;;;;6293172;22;20271;-75
2022/03/31 05:19:20;;;;;;;0.20;0.20;;;;;;;;;;6289267;22;20177;-76
2022/03/31 05:21:47;;;;;;;0.30;0.30;;;;;;;;;;6291526;22;20226;-76
2022/03/31 05:24:16;;;;;;;0.30;0.30;;;;;;;;;;6290191;22;20541;-76
2022/03/31 05:26:42;;;;;;;0.20;0.20;;;;;;;;;;6290088;22;20269;-77
2022/03/31 05:29:09;;;;;;;0.20;0.20;;;;;;;;;;6291367;22;20241;-78
2022/03/31 05:31:36;;;;;;;0.20;0.20;;;;;;;;;;6289416;22;20553;-77
2022/03/31 05:34:03;;;;;;;0.30;0.30;;;;;;;;;;6292159;22;20174;-77
2022/03/31 05:36:29;;;;;;;0.30;0.30;;;;;;;;;;6288110;22;20572;-77
2022/03/31 05:38:56;;;;;;;0.20;0.20;;;;;;;;;;6293401;22;20222;-77
2022/03/31 05:41:24;;;;;;;0.20;0.20;;;;;;;;;;6286961;22;20244;-76
2022/03/31 05:43:50;;;;;;;0.20;0.20;;;;;;;;;;6295305;22;20233;-79
2022/03/31 05:46:17;;;;;;;0.20;0.20;;;;;;;;;;6285716;22;20293;-77
2022/03/31 05:48:44;;;;;;;0.20;0.20;;;;;;;;;;6296299;22;20178;-76
2022/03/31 05:51:12;;;;;;;0.20;0.20;;;;;;;;;;6284605;22;20544;-78
2022/03/31 05:53:38;;;;;;;0.23;0.23;;;;;;;;;;6296725;22;20178;-77
2022/03/31 05:56:05;;;;;;;0.20;0.20;;;;;;;;;;6283334;22;20216;-77
2022/03/31 05:58:32;;;;;;;9.17;8.50;;;;;;;;;;6298215;22;20177;-77
2022/03/31 06:00:59;;;;;;;0.20;0.20;;;;;;;;;;6281222;22;20281;-76
2022/03/31 06:03:26;;;;;;;0.20;0.20;;;;;;;;;;6299861;22;20214;-76
2022/03/31 06:05:52;;;;;;;0.20;0.20;;;;;;;;;;6280782;22;20216;-75
2022/03/31 06:08:19;;;;;;;0.20;0.20;;;;;;;;;;6300749;22;20171;-75
2022/03/31 06:10:45;;;;;;;0.23;0.23;;;;;;;;;;6278839;22;20390;-77
2022/03/31 06:13:12;;;;;;;0.20;0.20;;;;;;;;;;6301739;22;20230;-75
2022/03/31 06:15:41;;;;;;;0.20;0.20;;;;;;;;;;6277594;22;20359;-75
2022/03/31 06:18:08;;;;;;;0.30;0.30;;;;;;;;;;6302794;22;20567;-78
2022/03/31 06:20:35;;;;;;;0.30;0.30;;;;;;;;;;6276624;22;20676;-76
2022/03/31 06:23:01;;;;;;;0.30;0.30;;;;;;;;;;6304159;22;20195;-75
2022/03/31 06:25:27;;;;;;;0.20;0.20;;;;;;;;;;6275442;22;20213;-74
2022/03/31 06:27:54;;;;;;;0.20;0.20;;;;;;;;;;6306085;22;20240;-75
2022/03/31 06:30:21;;;;;;;0.20;0.20;;;;;;;;;;6273802;22;20377;-76
2022/03/31 06:32:51;;;;;;;0.20;0.20;;;;;;;;;;6307743;22;20498;-76
2022/03/31 06:35:19;;;;;;;0.20;0.20;;;;;;;;;;6273856;22;20505;-76
2022/03/31 06:37:48;;;;;;;0.20;0.20;;;;;;;;;;6308277;22;20213;-78
2022/03/31 06:40:15;;;;;;;0.20;0.20;;;;;;;;;;6273065;22;20190;-77
2022/03/31 06:42:43;;;;;;;0.20;0.20;;;;;;;;;;6308464;22;20210;-74
2022/03/31 06:45:12;;;;;;;0.20;0.20;;;;;;;;;;6272370;22;20417;-76
2022/03/31 06:47:42;;;;;;;0.20;0.20;;;;;;;;;;6309046;22;20179;-78
2022/03/31 06:55:47;;;;;;;0.30;0.30;;;;;;;;;;6198591;22;20276;-77
2022/03/31 06:58:29;;;;;;;0.20;0.20;;;;;;;;;;6252849;23;20183;-76
2022/03/31 07:10:49;;;;;;;0.20;0.20;;;;;;;;;;6172803;23;20178;-78
2022/03/31 07:16:32;;;;;;;0.20;0.20;;;;;;;;;;6286223;22;20204;-77
2022/03/31 07:19:26;;;;;;;;;;;;;;;;;;;;;
2022/03/31 07:22:12;;;;;;;0.20;0.20;;;;;;;;;;6184784;23;20219;-77
2022/03/31 07:28:04;;;;;;;;;;;;;;;;;;;;;
2022/03/31 07:39:28;;;;;;;0.20;0.20;;;;;;;;;;6168433;22;20176;-78
2022/03/31 07:42:09;;;;;;;0.20;0.20;;;;;;;;;;6227645;22;20214;-76
2022/03/31 07:45:03;;;;;;;;;;;;;;;;;;;;;
2022/03/31 07:50:55;;;;;;;0.20;0.20;;;;;;;;;;6164638;23;20247;-78
2022/03/31 07:53:22;;;;;;;0.20;0.20;;;;;;;;;;6164850;23;20180;-77
2022/03/31 08:12:40;;;;;;;0.20;0.20;;;;;;;;;;6050551;22;20174;-77
2022/03/31 08:15:10;;;;;;;0.20;0.20;;;;;;;;;;6287914;22;20190;-75
2022/03/31 08:17:38;;;;;;;0.20;0.20;;;;;;;;;;6244600;22;20181;-75
2022/03/31 08:20:11;;;;;;;0.20;0.20;;;;;;;;;;6288144;22;20181;-75
2022/03/31 08:22:43;;;;;;;0.20;0.20;;;;;;;;;;6245210;22;20217;-75
2022/03/31 08:25:13;;;;;;;0.20;0.20;;;;;;;;;;6244399;22;20236;-77
2022/03/31 08:27:41;;;;;;;0.20;0.20;;;;;;;;;;6307418;22;20181;-73
2022/03/31 08:30:10;;;;;;;0.17;0.17;;;;;;;;;;6270861;22;20174;-75
2022/03/31 08:32:43;;;;;;;0.20;0.20;;;;;;;;;;6306815;22;20181;-74
2022/03/31 08:35:10;;;;;;;0.20;0.20;;;;;;;;;;6288080;22;20584;-75
2022/03/31 08:37:39;;;;;;;0.20;0.20;;;;;;;;;;6294543;22;20520;-76
2022/03/31 08:40:06;;;;;;;0.20;0.20;;;;;;;;;;6287544;22;20237;-75
2022/03/31 08:42:43;;;;;;;0.13;0.13;;;;;;;;;;6206648;22;20549;-73
2022/03/31 08:45:20;;;;;;;0.13;0.13;;;;;;;;;;6224263;23;20486;-75
2022/03/31 08:47:51;;;;;;;0.20;0.20;;;;;;;;;;6149267;23;20247;-73
2022/03/31 08:50:18;;;;;;;0.13;0.13;;;;;;;;;;6151411;23;20181;-74
2022/03/31 08:52:46;;;;;;;0.20;0.20;;;;;;;;;;6163858;23;20186;-75
2022/03/31 09:20:20;;;;;;;0.13;0.13;;;;;;;;;;6168686;23;20436;-74
2022/03/31 09:22:49;;;;;;;0.20;0.20;;;;;;;;;;6239400;22;20219;-74
2022/03/31 09:25:23;;;;;;;0.10;0.10;;;;;;;;;;6273700;22;20185;-75
2022/03/31 09:27:50;;;;;;;0.10;0.10;;;;;;;;;;6307722;22;20204;-74
2022/03/31 09:30:18;;;;;;;0.10;0.10;;;;;;;;;;6272418;22;20434;-75
2022/03/31 09:33:06;;;;;;;;;;;;;;;;;;;;;
2022/03/31 09:35:35;;;;;;;0.10;0.10;;;;;;;;;;6275480;22;20212;-75
2022/03/31 09:38:16;;;;;;;0.13;0.13;;;;;;;;;;6306299;22;20475;-75
2022/03/31 09:40:45;;;;;;;0.10;0.10;;;;;;;;;;6255864;22;20219;-73
2022/03/31 09:43:18;;;;;;;0.10;0.10;;;;;;;;;;6223043;23;20530;-74
2022/03/31 09:45:48;;;;;;;0.20;0.20;;;;;;;;;;6196312;23;20221;-74
2022/03/31 09:48:18;;;;;;;0.20;0.20;;;;;;;;;;6163133;23;20181;-72
2022/03/31 09:59:01;;;;;;;0.10;0.10;;;;;;;;;;6104317;23;20210;-73
2022/03/31 10:01:29;;;;;;;0.10;0.10;;;;;;;;;;6086593;23;20269;-76
2022/03/31 10:03:56;;;;;;;0.10;0.10;;;;;;;;;;6092992;23;20203;-75
2022/03/31 10:06:24;;;;;;;0.10;0.10;;;;;;;;;;6095270;23;20219;-74
2022/03/31 10:08:51;;;;;;;0.10;0.10;;;;;;;;;;6133843;23;20238;-74
2022/03/31 10:11:20;;;;;;;0.10;0.10;;;;;;;;;;6123140;23;20214;-75
2022/03/31 10:13:48;;;;;;;0.10;0.10;;;;;;;;;;6172155;23;20201;-71
2022/03/31 10:16:16;;;;;;;0.10;0.10;;;;;;;;;;6169017;22;20259;-70
2022/03/31 10:18:46;;;;;;;0.10;0.10;;;;;;;;;;6294168;22;20182;-75
2022/03/31 10:21:13;;;;;;;0.17;0.17;;;;;;;;;;6279320;22;20533;-74
2022/03/31 10:26:34;;;;;;;0.10;0.10;;;;;;;;;;6223536;22;20269;-74
2022/03/31 10:29:02;;;;;;;0.10;0.10;;;;;;;;;;6294688;22;20428;-73
2022/03/31 10:31:40;;;;;;;0.10;0.10;;;;;;;;;;6267953;22;20210;-74
2022/03/31 10:34:10;;;;;;;0.10;0.10;;;;;;;;;;6286009;22;20174;-77
2022/03/31 10:36:39;;;;;;;0.10;0.10;;;;;;;;;;6284620;22;20218;-74
2022/03/31 10:39:08;;;;;;;0.10;0.10;;;;;;;;;;6294279;22;20540;-72
2022/03/31 10:41:35;;;;;;;0.10;0.10;;;;;;;;;;6285025;22;20210;-77
2022/03/31 10:44:03;;;;;;;0.10;0.10;;;;;;;;;;6293494;22;20199;-73
2022/03/31 10:46:32;;;;;;;0.10;0.10;;;;;;;;;;6284002;22;20218;-74
2022/03/31 10:49:13;;;;;;;0.17;0.17;;;;;;;;;;6293777;22;20211;-77
2022/03/31 10:52:07;;;;;;;0.10;0.10;;;;;;;;;;6227246;22;20493;-76
2022/03/31 10:55:19;;;;;;;0.10;0.10;;;;;;;;;;6222917;23;20224;-78
2022/03/31 10:57:50;;;;;;;0.10;0.10;;;;;;;;;;6223932;23;20192;-79
2022/03/31 11:00:21;;;;;;;0.10;0.10;;;;;;;;;;6206819;23;20181;-81
2022/03/31 11:02:49;;;;;;;0.10;0.10;;;;;;;;;;6164808;23;20289;-78
2022/03/31 11:05:33;;;;;;;0.20;0.20;;;;;;;;;;6150269;23;20206;-79
2022/03/31 11:08:18;;;;;;;0.10;0.10;;;;;;;;;;6164580;23;20250;-78
2022/03/31 11:13:48;;;;;;;0.47;0.47;;;;;;;;;;6134950;23;20336;-78
2022/03/31 11:28:18;;;;;;;0.10;0.10;;;;;;;;;;6095159;23;20279;-79
2022/03/31 11:30:51;;;;;;;0.10;0.10;;;;;;;;;;6099093;23;20311;-80
2022/03/31 11:33:19;;;;;;;0.10;0.10;;;;;;;;;;6121948;23;20246;-80
2022/03/31 11:35:45;;;;;;;2.57;2.47;;;;;;;;;;6100025;23;20223;-81
2022/03/31 11:38:14;;;;;;;0.20;0.20;;;;;;;;;;6178657;23;20247;-81
2022/03/31 11:40:43;;;;;;;0.10;0.10;;;;;;;;;;6150510;23;20229;-79
2022/03/31 11:43:12;;;;;;;0.10;0.10;;;;;;;;;;6285538;22;20522;-82
2022/03/31 11:45:43;;;;;;;0.10;0.10;;;;;;;;;;6266145;22;20293;-83
2022/03/31 11:48:14;;;;;;;0.10;0.10;;;;;;;;;;6290084;22;20179;-81
2022/03/31 11:50:49;;;;;;;0.10;0.10;;;;;;;;;;6258886;22;20215;-83
2022/03/31 11:53:16;;;;;;;0.10;0.10;;;;;;;;;;6226180;23;20375;-82
2022/03/31 11:55:46;;;;;;;0.10;0.10;;;;;;;;;;6195337;23;20224;-82
2022/03/31 11:58:25;;;;;;;0.10;0.10;;;;;;;;;;6166033;23;20191;-80
2022/03/31 12:00:57;;;;;;;0.10;0.10;;;;;;;;;;6150700;23;20230;-79
2022/03/31 12:03:33;;;;;;;0.10;0.10;;;;;;;;;;6165703;23;20201;-80
2022/03/31 12:06:02;;;;;;;0.10;0.10;;;;;;;;;;6129273;23;20247;-80
2022/03/31 12:08:30;;;;;;;0.10;0.10;;;;;;;;;;6105917;23;20189;-80
2022/03/31 12:18:13;;;;;;;0.10;0.10;;;;;;;;;;5979558;23;20216;-79
2022/03/31 12:20:43;;;;;;;0.10;0.10;;;;;;;;;;6035690;23;20459;-80
2022/03/31 12:23:20;;;;;;;2.73;2.63;;;;;;;;;;6074285;23;20553;-79
2022/03/31 12:25:49;;;;;;;0.10;0.10;;;;;;;;;;6070499;23;20214;-77
2022/03/31 12:28:22;;;;;;;0.10;0.10;;;;;;;;;;6091785;23;20207;-81
2022/03/31 12:30:52;;;;;;;0.10;0.10;;;;;;;;;;6068948;23;20224;-78
2022/03/31 12:33:21;;;;;;;0.10;0.10;;;;;;;;;;6177680;23;20182;-79
2022/03/31 12:35:57;;;;;;;0.10;0.10;;;;;;;;;;6183767;23;20351;-80
2022/03/31 12:38:39;;;;;;;0.10;0.10;;;;;;;;;;6299285;22;20226;-77
2022/03/31 12:41:11;;;;;;;0.10;0.10;;;;;;;;;;6277004;22;20252;-78
2022/03/31 12:43:37;;;;;;;0.10;0.10;;;;;;;;;;6298611;22;20202;-78
2022/03/31 12:46:16;;;;;;;0.10;0.10;;;;;;;;;;6280121;22;20277;-74
2022/03/31 12:48:56;;;;;;;0.10;0.10;;;;;;;;;;6299716;22;20193;-73
2022/03/31 12:51:25;;;;;;;0.10;0.10;;;;;;;;;;6283818;22;20246;-73
2022/03/31 12:53:52;;;;;;;0.23;0.23;;;;;;;;;;6297057;22;20245;-73
2022/03/31 12:56:25;;;;;;;0.10;0.10;;;;;;;;;;6281576;22;20228;-73
2022/03/31 12:58:53;;;;;;;0.10;0.10;;;;;;;;;;6297229;22;20196;-74
2022/03/31 13:01:20;;;;;;;0.10;0.10;;;;;;;;;;6280975;22;20339;-74
2022/03/31 13:03:48;;;;;;;0.10;0.10;;;;;;;;;;6297477;22;20227;-73
2022/03/31 13:06:15;;;;;;;0.10;0.10;;;;;;;;;;6281326;22;20238;-73
2022/03/31 13:08:47;;;;;;;0.10;0.10;;;;;;;;;;6297842;22;20175;-73
2022/03/31 13:11:14;;;;;;;0.10;0.10;;;;;;;;;;6279533;22;20275;-73
2022/03/31 13:13:40;;;;;;;0.10;0.10;;;;;;;;;;6297795;22;20387;-72
2022/03/31 13:16:07;;;;;;;0.10;0.10;;;;;;;;;;6279428;22;20415;-72
2022/03/31 13:18:35;;;;;;;0.10;0.10;;;;;;;;;;6297903;22;20188;-72
2022/03/31 13:21:02;;;;;;;0.10;0.10;;;;;;;;;;6250784;22;20219;-73
2022/03/31 13:23:28;;;;;;;0.10;0.10;;;;;;;;;;6298827;22;20378;-74
2022/03/31 13:25:57;;;;;;;0.10;0.10;;;;;;;;;;6276927;22;20218;-75
2022/03/31 13:28:23;;;;;;;0.10;0.10;;;;;;;;;;6300787;22;20304;-72
2022/03/31 13:30:50;;;;;;;0.10;0.10;;;;;;;;;;6272110;22;20280;-72
2022/03/31 13:33:16;;;;;;;0.10;0.10;;;;;;;;;;6301354;22;20183;-74
2022/03/31 13:35:43;;;;;;;0.10;0.10;;;;;;;;;;6274457;22;20223;-73
2022/03/31 13:38:10;;;;;;;0.93;0.93;;;;;;;;;;6271592;22;20488;-74
2022/03/31 13:40:37;;;;;;;0.10;0.10;;;;;;;;;;6274314;22;20218;-74
2022/03/31 13:43:07;;;;;;;0.10;0.10;;;;;;;;;;6304116;22;20546;-75
2022/03/31 13:45:34;;;;;;;0.13;0.13;;;;;;;;;;6276223;22;20221;-72
2022/03/31 13:48:00;;;;;;;0.10;0.10;;;;;;;;;;6304878;22;20249;-73
2022/03/31 13:50:27;;;;;;;0.10;0.10;;;;;;;;;;6275081;22;20393;-73
2022/03/31 13:55:39;;;;;;;0.10;0.10;;;;;;;;;;6278484;22;20218;-74
2022/03/31 14:03:36;;;;;;;0.70;0.70;;;;;;;;;;6300609;22;20525;-75
2022/03/31 14:06:02;;;;;;;1.10;1.10;;;;;;;;;;6282590;22;20225;-72
2022/03/31 14:08:29;;;;;;;0.10;0.10;;;;;;;;;;6299328;22;20186;-72
2022/03/31 14:10:56;;;;;;;0.10;0.10;;;;;;;;;;6280630;22;20415;-76
2022/03/31 14:13:25;;;;;;;0.10;0.10;;;;;;;;;;6299984;22;20206;-75
2022/03/31 14:15:52;;;;;;;0.10;0.10;;;;;;;;;;6280012;22;20218;-78
2022/03/31 14:18:19;;;;;;;0.10;0.10;;;;;;;;;;6301538;22;20226;-75
2022/03/31 14:20:46;;;;;;;0.10;0.10;;;;;;;;;;6276841;22;20269;-75
2022/03/31 14:23:12;;;;;;;0.10;0.10;;;;;;;;;;6303226;22;20457;-75
2022/03/31 14:25:40;;;;;;;0.10;0.10;;;;;;;;;;6277802;22;20272;-75
2022/03/31 14:28:06;;;;;;;0.10;0.10;;;;;;;;;;6303897;22;20422;-75
2022/03/31 14:30:34;;;;;;;0.10;0.10;;;;;;;;;;6276332;22;20218;-77
2022/03/31 14:33:05;;;;;;;0.10;0.10;;;;;;;;;;6304949;22;20183;-75
2022/03/31 14:41:28;;;;;;;0.10;0.10;;;;;;;;;;6186193;22;20215;-68
2022/03/31 14:53:28;;;;;;;0.17;0.17;;;;;;;;;;6282369;22;20192;-76
2022/03/31 14:56:12;;;;;;;0.10;0.10;;;;;;;;;;6262943;22;20230;-77
2022/03/31 14:58:40;;;;;;;0.20;0.20;;;;;;;;;;6282989;22;20190;-77
2022/03/31 15:06:19;;;;;;;0.10;0.10;;;;;;;;;;6118175;23;20164;-75
2022/03/31 15:08:55;;;;;;;0.10;0.10;;;;;;;;;;6132523;23;20182;-75
2022/03/31 15:48:22;;;;;;;0.10;0.10;;;;;;;;;;6014601;23;20384;-74
2022/03/31 15:50:48;;;;;;;0.10;0.10;;;;;;;;;;6061203;23;20227;-75
2022/03/31 15:53:17;;;;;;;0.13;0.13;;;;;;;;;;6095051;23;20197;-76
2022/03/31 15:55:43;;;;;;;0.10;0.10;;;;;;;;;;6119600;23;20214;-74
2022/03/31 15:58:10;;;;;;;0.27;0.27;;;;;;;;;;6254591;22;20198;-73
2022/03/31 16:00:37;;;;;;;0.10;0.10;;;;;;;;;;6278275;22;20258;-69
2022/03/31 16:03:04;;;;;;;1.17;1.17;;;;;;;;;;6304492;22;20179;-70
2022/03/31 16:05:34;;;;;;;0.10;0.10;;;;;;;;;;6276700;22;20216;-75
2022/03/31 16:08:01;;;;;;;1.50;1.50;;;;;;;;;;6305559;22;20189;-74
2022/03/31 16:10:28;;;;;;;0.20;0.20;;;;;;;;;;6268628;22;20431;-76
2022/03/31 16:12:59;;;;;;;0.10;0.10;;;;;;;;;;6287184;22;20320;-76
2022/03/31 16:18:18;;;;;;;0.10;0.10;;;;;;;;;;6203449;23;20569;-77
2022/03/31 16:20:46;;;;;;;0.10;0.10;;;;;;;;;;6207778;23;20212;-75
2022/03/31 16:25:57;;;;;;;0.10;0.10;;;;;;;;;;6207326;23;20235;-75
2022/03/31 16:28:24;;;;;;;0.13;0.13;;;;;;;;;;6222718;23;20187;-75
2022/03/31 16:30:54;;;;;;;0.10;0.10;;;;;;;;;;6202149;23;20216;-76
2022/03/31 16:33:22;;;;;;;0.10;0.10;;;;;;;;;;6222626;23;20394;-78
2022/03/31 16:35:50;;;;;;;0.10;0.10;;;;;;;;;;6207617;23;20215;-74
2022/03/31 16:38:19;;;;;;;0.10;0.10;;;;;;;;;;6222422;23;20187;-74
2022/03/31 16:40:45;;;;;;;0.10;0.10;;;;;;;;;;6207044;23;20275;-77
2022/03/31 16:43:12;;;;;;;0.10;0.10;;;;;;;;;;6281040;22;20194;-76
2022/03/31 16:45:53;;;;;;;0.10;0.10;;;;;;;;;;6274380;22;20383;-75
2022/03/31 16:48:19;;;;;;;0.20;0.20;;;;;;;;;;6301638;22;20167;-76
2022/03/31 16:50:48;;;;;;;0.10;0.10;;;;;;;;;;6278557;22;20307;-76
2022/03/31 16:53:26;;;;;;;0.10;0.10;;;;;;;;;;6302013;22;20194;-77
2022/03/31 16:55:57;;;;;;;0.10;0.10;;;;;;;;;;6281213;22;20454;-78
2022/03/31 16:58:23;;;;;;;0.10;0.10;;;;;;;;;;6299924;22;20198;-75
2022/03/31 17:00:51;;;;;;;0.10;0.10;;;;;;;;;;6279682;22;20216;-76
2022/03/31 17:03:22;;;;;;;0.10;0.10;;;;;;;;;;6301450;22;20186;-77
2022/03/31 17:05:49;;;;;;;0.10;0.10;;;;;;;;;;6275198;22;20209;-75
2022/03/31 17:08:16;;;;;;;0.10;0.10;;;;;;;;;;6301370;22;20178;-75
2022/03/31 17:10:43;;;;;;;0.20;0.20;;;;;;;;;;6277964;22;20220;-73
2022/03/31 17:13:19;;;;;;;0.10;0.10;;;;;;;;;;6303495;22;20394;-74
2022/03/31 17:15:46;;;;;;;0.10;0.10;;;;;;;;;;6278906;22;20216;-73
2022/03/31 17:18:26;;;;;;;0.10;0.10;;;;;;;;;;6302656;22;20182;-76
2022/03/31 17:20:55;;;;;;;0.10;0.10;;;;;;;;;;6279086;22;20298;-75
2022/03/31 17:23:40;;;;;;;0.10;0.10;;;;;;;;;;6300841;22;20262;-76
2022/03/31 17:26:10;;;;;;;0.10;0.10;;;;;;;;;;6280461;22;20415;-76
2022/03/31 17:28:40;;;;;;;0.10;0.10;;;;;;;;;;6299259;22;20193;-76
2022/03/31 17:34:09;;;;;;;0.43;0.43;;;;;;;;;;6172234;23;20225;-76
2022/03/31 17:36:41;;;;;;;0.20;0.20;;;;;;;;;;6249541;22;20211;-76
2022/03/31 17:39:23;;;;;;;;;;;;;;;;;;;;;
2022/03/31 17:42:04;;;;;;;0.10;0.10;;;;;;;;;;6235903;23;20218;-76
2022/03/31 17:44:33;;;;;;;0.20;0.20;;;;;;;;;;6252731;23;20194;-75
2022/03/31 17:47:00;;;;;;;0.17;0.17;;;;;;;;;;6237812;23;20279;-77
2022/03/31 17:49:32;;;;;;;0.20;0.20;;;;;;;;;;6252388;23;20179;-77
2022/03/31 17:52:00;;;;;;;0.10;0.10;;;;;;;;;;6237721;23;20448;-76
2022/03/31 17:54:31;;;;;;;0.10;0.10;;;;;;;;;;6252624;23;20351;-76
2022/03/31 17:57:02;;;;;;;0.10;0.10;;;;;;;;;;6237719;23;20211;-75
2022/03/31 17:59:30;;;;;;;0.10;0.10;;;;;;;;;;6252481;23;20486;-74
2022/03/31 18:01:56;;;;;;;0.17;0.17;;;;;;;;;;6196518;23;20458;-76
2022/03/31 18:04:23;;;;;;;0.10;0.10;;;;;;;;;;6191796;23;20188;-72